Eastend Cypress, Canada
Current Conditions -  °F | °C
As of 10:53 AM on Tuesday 27 Jan 2015 (Local Time) from KHVR Reporting Station
Clear Clear  
Wind Chill: 40°   Ceiling: Unl
Heat Index: 46°   Visibility: 10mi
Dew Point: 33°   Wind: 14mph
Humidity: 61%   Direction: 220°SW
Pressure: 29.85"   Gusts: NA
Location:  49.43°N, 108.98°W
Report Text: KHVR 271653Z AUTO 22012KT 10SM CLR 08/01 A2985 RMK AO2 SLP116 T00780006
Loading
Personal Weather Stations






























Interactive Weather Map New forecast layout! Learn more

10-Day Weather Forecast

Advertisements
Track Severe Weather on mobile